Time;durP1;ratioP1;P1;durP2;ratioP2;P2;SDS_P1;SDS_P2;PMS_P1;PMS_P2;Temp;Humidity;BMP_temperature;BMP_pressure;BME280_temperature;BME280_humidity;BME280_pressure;Samples;Min_cycle;Max_cycle;Signal;HPM_P1;HPM_P2
2021/11/15 00:02:14;;;;;;;88.00;51.90;;;;;;;5.22;83.84;100761.50;106058;1318;138072;-65
2021/11/15 00:04:43;;;;;;;84.50;50.50;;;;;;;5.22;83.91;100754.77;106176;1318;23243;-65
2021/11/15 00:07:11;;;;;;;83.80;48.90;;;;;;;5.24;83.81;100756.20;106059;1317;138386;-65
2021/11/15 00:09:42;;;;;;;90.30;49.10;;;;;;;5.25;83.81;100755.59;106204;1318;23204;-65
2021/11/15 00:12:11;;;;;;;83.50;48.80;;;;;;;5.25;83.59;100755.41;106027;1318;22371;-65
2021/11/15 00:14:39;;;;;;;80.70;47.20;;;;;;;5.25;83.86;100753.60;106084;1318;139861;-65
2021/11/15 00:17:07;;;;;;;84.50;48.10;;;;;;;5.26;83.76;100753.23;106170;1318;23306;-65
2021/11/15 00:19:55;;;;;;;80.70;46.50;;;;;;;5.27;83.68;100756.69;105504;1318;139017;-65
2021/11/15 00:22:23;;;;;;;78.70;46.90;;;;;;;5.29;83.88;100755.46;106147;1316;22567;-65
2021/11/15 00:24:53;;;;;;;82.00;48.90;;;;;;;5.29;83.83;100758.42;105998;1316;140163;-65
2021/11/15 00:27:21;;;;;;;80.20;47.70;;;;;;;5.30;83.96;100758.14;106193;1318;23065;-65
2021/11/15 00:29:49;;;;;;;78.30;47.40;;;;;;;5.30;83.62;100755.03;106151;1318;23264;-65
2021/11/15 00:32:18;;;;;;;81.10;45.80;;;;;;;5.29;83.64;100751.20;106060;1316;138858;-65
2021/11/15 00:34:46;;;;;;;79.20;46.50;;;;;;;5.32;83.66;100757.71;106200;1318;23214;-65
2021/11/15 00:37:15;;;;;;;88.40;49.60;;;;;;;5.33;83.83;100762.30;105844;1321;138716;-65
2021/11/15 00:39:45;;;;;;;87.40;49.80;;;;;;;5.33;84.05;100762.23;106049;1320;22413;-65
2021/11/15 00:42:14;;;;;;;84.40;49.00;;;;;;;5.33;83.68;100764.73;106167;1318;22485;-65
2021/11/15 00:44:42;;;;;;;80.40;46.50;;;;;;;5.33;83.78;100769.70;106100;1318;138953;-65
2021/11/15 00:47:11;;;;;;;85.50;49.40;;;;;;;5.33;83.74;100766.19;105285;1322;22407;-65
2021/11/15 00:49:39;;;;;;;80.40;46.60;;;;;;;5.32;83.86;100758.29;106086;1318;139175;-65
2021/11/15 00:52:08;;;;;;;74.70;44.20;;;;;;;5.32;83.65;100744.04;106152;1318;22474;-65
2021/11/15 00:54:36;;;;;;;81.20;46.00;;;;;;;5.32;83.73;100748.19;105360;1323;22461;-65
2021/11/15 00:57:05;;;;;;;76.80;44.70;;;;;;;5.30;83.45;100759.30;106033;1318;138838;-65
2021/11/15 00:59:33;;;;;;;83.90;46.20;;;;;;;5.27;83.51;100762.81;106195;1318;22373;-65
2021/11/15 01:02:02;;;;;;;81.50;45.50;;;;;;;5.26;83.58;100766.27;106029;1319;138084;-65
2021/11/15 01:04:30;;;;;;;89.30;48.20;;;;;;;5.23;83.52;100764.72;106184;1318;22519;-65
2021/11/15 01:06:59;;;;;;;87.60;47.90;;;;;;;5.23;83.60;100765.20;106042;1318;138416;-65
2021/11/15 01:09:27;;;;;;;86.00;47.80;;;;;;;5.21;83.72;100766.48;106168;1318;22395;-64
2021/11/15 01:12:12;;;;;;;88.00;48.40;;;;;;;5.20;83.79;100770.08;106208;1318;22535;-65
2021/11/15 01:14:40;;;;;;;86.00;46.70;;;;;;;5.20;83.69;100771.08;106074;1318;138348;-65
2021/11/15 01:17:08;;;;;;;85.40;48.00;;;;;;;5.21;83.62;100771.17;106124;1318;22487;-64
2021/11/15 01:19:36;;;;;;;90.10;49.50;;;;;;;5.22;83.37;100775.79;106072;1318;138715;-65
2021/11/15 01:22:04;;;;;;;97.00;51.60;;;;;;;5.20;83.68;100778.45;106157;1318;22596;-65
2021/11/15 01:24:33;;;;;;;89.10;49.90;;;;;;;5.19;83.96;100784.85;106198;1318;22452;-65
2021/11/15 01:27:01;;;;;;;85.30;46.80;;;;;;;5.17;83.88;100792.02;106082;1318;137787;-65
2021/11/15 01:29:29;;;;;;;85.20;49.90;;;;;;;5.17;83.81;100797.86;106148;1318;22406;-65
2021/11/15 01:31:57;;;;;;;95.80;53.70;;;;;;;5.16;84.01;100785.02;106098;1319;140316;-65
2021/11/15 01:34:25;;;;;;;96.70;55.70;;;;;;;5.15;84.13;100777.73;106185;1322;22479;-64
2021/11/15 01:36:53;;;;;;;97.40;55.30;;;;;;;5.15;84.51;100786.71;106085;1319;138354;-63
2021/11/15 01:39:23;;;;;;;99.20;58.10;;;;;;;5.16;84.42;100796.83;106200;1318;22475;-66
2021/11/15 01:41:52;;;;;;;96.70;56.50;;;;;;;5.17;84.60;100787.20;106153;1318;23176;-67
2021/11/15 01:44:20;;;;;;;97.60;55.70;;;;;;;5.17;84.73;100783.91;106067;1318;139208;-66
2021/11/15 01:46:48;;;;;;;100.20;57.40;;;;;;;5.17;84.73;100787.16;106152;1318;22454;-67
2021/11/15 01:49:16;;;;;;;99.40;58.30;;;;;;;5.18;84.68;100789.00;105874;1319;138961;-66
2021/11/15 01:51:44;;;;;;;101.70;57.80;;;;;;;5.20;84.83;100785.50;106185;1318;22478;-66
2021/11/15 01:54:13;;;;;;;105.90;59.40;;;;;;;5.22;85.25;100780.81;106165;1322;22653;-66
2021/11/15 01:56:41;;;;;;;106.00;60.40;;;;;;;5.22;84.91;100779.70;106066;1318;138400;-66
2021/11/15 01:59:10;;;;;;;95.10;57.20;;;;;;;5.22;84.81;100784.02;104929;1318;22519;-66
2021/11/15 02:01:39;;;;;;;102.80;57.10;;;;;;;5.22;84.72;100785.84;105890;1318;138489;-66
2021/11/15 02:04:07;;;;;;;103.30;59.40;;;;;;;5.22;84.82;100786.32;104966;1325;22440;-65
2021/11/15 02:06:35;;;;;;;101.20;57.30;;;;;;;5.23;85.03;100782.13;106000;1318;23438;-66
2021/11/15 02:09:04;;;;;;;102.20;59.30;;;;;;;5.23;84.97;100777.05;106070;1318;138337;-66
2021/11/15 02:11:33;;;;;;;105.60;60.50;;;;;;;5.24;84.96;100785.75;106182;1318;22404;-66
2021/11/15 02:14:02;;;;;;;100.40;57.70;;;;;;;5.24;85.05;100786.66;105873;1318;138470;-66
2021/11/15 02:16:30;;;;;;;98.90;58.20;;;;;;;5.23;84.79;100781.70;106202;1318;22500;-66
2021/11/15 02:18:59;;;;;;;97.50;58.30;;;;;;;5.23;84.97;100777.93;105832;1319;138597;-66
2021/11/15 02:21:27;;;;;;;102.30;59.60;;;;;;;5.23;84.76;100780.59;106176;1318;24751;-68
2021/11/15 02:23:55;;;;;;;103.10;61.00;;;;;;;5.24;84.79;100785.71;106189;1318;22478;-66
2021/11/15 02:26:23;;;;;;;103.60;59.10;;;;;;;5.25;84.68;100781.69;106048;1318;140429;-66
2021/11/15 02:28:52;;;;;;;103.90;59.10;;;;;;;5.25;84.94;100782.89;106175;1322;23206;-66
2021/11/15 02:31:23;;;;;;;108.20;60.50;;;;;;;5.26;84.74;100783.03;106086;1318;139567;-66
2021/11/15 02:33:53;;;;;;;110.60;60.90;;;;;;;5.25;84.73;100788.30;106192;1318;22502;-66
2021/11/15 02:36:23;;;;;;;106.40;60.90;;;;;;;5.25;84.87;100798.61;106166;1318;22509;-66
2021/11/15 02:38:52;;;;;;;103.70;60.30;;;;;;;5.23;84.76;100799.91;106063;1316;138370;-66
2021/11/15 02:41:21;;;;;;;99.20;59.20;;;;;;;5.22;84.50;100805.34;102474;1318;25254;-66
2021/11/15 02:43:49;;;;;;;98.10;57.90;;;;;;;5.20;84.79;100815.92;106022;1318;138067;-66
2021/11/15 02:46:18;;;;;;;100.30;56.60;;;;;;;5.19;84.99;100819.54;106013;1321;22479;-64
2021/11/15 02:48:46;;;;;;;101.00;57.40;;;;;;;5.17;84.80;100825.86;106085;1323;139750;-64
2021/11/15 02:51:14;;;;;;;104.20;57.90;;;;;;;5.15;84.86;100832.97;106127;1318;22493;-64
2021/11/15 02:53:42;;;;;;;97.90;57.90;;;;;;;5.13;84.66;100839.17;106196;1319;22544;-64
2021/11/15 02:56:12;;;;;;;101.90;56.30;;;;;;;5.11;85.03;100835.13;106045;1323;139793;-64
2021/11/15 02:58:40;;;;;;;97.70;56.30;;;;;;;5.10;85.19;100838.30;105596;1318;22972;-64
2021/11/15 03:01:14;;;;;;;99.20;57.40;;;;;;;5.10;85.24;100837.63;106092;1318;138375;-64
2021/11/15 03:03:42;;;;;;;97.50;57.50;;;;;;;5.11;85.17;100838.36;106179;1318;22454;-64
2021/11/15 03:06:10;;;;;;;99.80;56.40;;;;;;;5.13;85.21;100839.42;106173;1319;22527;-64
2021/11/15 03:08:39;;;;;;;93.90;55.20;;;;;;;5.15;85.11;100842.02;106051;1323;138299;-64
2021/11/15 03:11:07;;;;;;;86.30;53.70;;;;;;;5.16;85.10;100841.63;105741;1318;22601;-64
2021/11/15 03:13:43;;;;;;;88.70;53.20;;;;;;;5.18;85.12;100848.38;106069;1323;138667;-63
2021/11/15 03:16:11;;;;;;;93.10;50.70;;;;;;;5.16;84.82;100848.56;106149;1318;22402;-64
2021/11/15 03:18:40;;;;;;;92.50;52.70;;;;;;;5.14;84.70;100850.08;106206;1318;22552;-64
2021/11/15 03:21:11;;;;;;;84.70;50.80;;;;;;;5.12;84.91;100849.80;106108;1318;137788;-63
2021/11/15 03:23:41;;;;;;;93.80;54.40;;;;;;;5.09;84.84;100846.35;104509;1318;24174;-65
2021/11/15 03:26:10;;;;;;;95.70;55.20;;;;;;;5.07;84.88;100848.70;106097;1318;138701;-64
2021/11/15 03:28:40;;;;;;;92.70;53.70;;;;;;;5.06;85.07;100852.88;106175;1322;22571;-64
2021/11/15 03:31:20;;;;;;;101.60;55.40;;;;;;;5.05;85.02;100850.02;106036;1318;138375;-64
2021/11/15 03:33:56;;;;;;;94.50;53.70;;;;;;;5.02;85.13;100854.88;106020;1318;23502;-64
2021/11/15 03:36:24;;;;;;;96.30;55.60;;;;;;;4.99;84.98;100855.35;106164;1318;22301;-64
2021/11/15 03:38:55;;;;;;;96.40;57.40;;;;;;;4.97;85.49;100861.51;105304;1327;139261;-64
2021/11/15 03:41:28;;;;;;;99.10;56.20;;;;;;;4.95;85.25;100860.31;106147;1318;23530;-65
2021/11/15 03:43:56;;;;;;;110.00;59.10;;;;;;;4.93;85.65;100866.11;106081;1318;139084;-66
2021/11/15 03:46:25;;;;;;;109.00;61.40;;;;;;;4.91;85.55;100871.27;106181;1318;22319;-65
2021/11/15 03:48:53;;;;;;;105.40;60.00;;;;;;;4.88;85.46;100873.99;106091;1318;139666;-65
2021/11/15 03:51:21;;;;;;;102.10;59.50;;;;;;;4.86;85.94;100877.83;106195;1318;22480;-65
2021/11/15 03:53:49;;;;;;;103.50;61.00;;;;;;;4.84;86.15;100881.91;106201;1318;22655;-65
2021/11/15 03:56:22;;;;;;;100.80;59.80;;;;;;;4.81;86.31;100883.17;106083;1318;138933;-65
2021/11/15 03:58:50;;;;;;;106.20;60.10;;;;;;;4.79;86.44;100881.41;106188;1318;22403;-65
2021/11/15 04:01:24;;;;;;;106.00;59.40;;;;;;;4.78;86.23;100886.38;106031;1318;140223;-65
2021/11/15 04:03:54;;;;;;;99.60;57.60;;;;;;;4.76;86.14;100890.02;106147;1318;22556;-65
2021/11/15 04:06:24;;;;;;;102.00;57.60;;;;;;;4.75;86.51;100891.16;106098;1318;22470;-65
2021/11/15 04:08:54;;;;;;;102.70;57.00;;;;;;;4.71;86.51;100895.15;105976;1318;140124;-65
2021/11/15 04:11:23;;;;;;;97.40;54.50;;;;;;;4.70;86.13;100897.53;105545;1322;808403;-65
2021/11/15 04:13:54;;;;;;;95.30;56.70;;;;;;;4.66;86.47;100894.20;106020;1318;139166;-65
2021/11/15 04:16:22;;;;;;;99.50;54.00;;;;;;;4.65;86.37;100902.73;106199;1318;22482;-65
2021/11/15 04:18:54;;;;;;;87.30;51.00;;;;;;;4.61;86.19;100906.96;106284;1315;138928;-65
2021/11/15 04:21:23;;;;;;;90.90;52.30;;;;;;;4.58;86.33;100908.80;106365;1315;23297;-65
2021/11/15 04:23:51;;;;;;;89.50;52.10;;;;;;;4.55;86.26;100908.62;106394;1315;22455;-66
2021/11/15 04:26:19;;;;;;;95.30;54.30;;;;;;;4.54;86.63;100916.48;106277;1317;138241;-66
2021/11/15 04:28:47;;;;;;;87.90;49.90;;;;;;;4.53;86.44;100920.78;106393;1315;23246;-67
2021/11/15 04:31:15;;;;;;;83.70;49.90;;;;;;;4.51;86.50;100918.64;106314;1315;139333;-66
2021/11/15 04:33:44;;;;;;;88.20;50.20;;;;;;;4.48;86.61;100913.14;106385;1315;22482;-66
2021/11/15 04:36:12;;;;;;;90.70;50.50;;;;;;;4.48;86.53;100919.58;106419;1315;23344;-66
2021/11/15 04:38:40;;;;;;;98.20;49.60;;;;;;;4.46;86.46;100921.57;106347;1315;139397;-66
2021/11/15 04:41:08;;;;;;;99.20;49.60;;;;;;;4.45;86.78;100923.54;106426;1315;22448;-66
2021/11/15 04:43:36;;;;;;;91.70;48.40;;;;;;;4.45;86.61;100929.45;106259;1315;138053;-66
2021/11/15 04:46:04;;;;;;;92.40;49.50;;;;;;;4.45;86.76;100935.38;105611;1319;22573;-66
2021/11/15 04:48:32;;;;;;;83.80;48.30;;;;;;;4.40;86.85;100928.04;106383;1315;22529;-66
2021/11/15 04:51:01;;;;;;;91.40;48.50;;;;;;;4.43;86.72;100932.19;105369;1316;138338;-68
2021/11/15 04:53:30;;;;;;;87.40;49.30;;;;;;;4.43;86.85;100933.84;106401;1316;22462;-66
2021/11/15 04:55:58;;;;;;;86.00;49.60;;;;;;;4.43;87.42;100939.64;106268;1315;138144;-66
2021/11/15 04:58:26;;;;;;;91.30;49.30;;;;;;;4.42;87.15;100942.01;106372;1313;23337;-65
2021/11/15 05:00:55;;;;;;;96.60;51.60;;;;;;;4.42;87.46;100942.55;106270;1315;138821;-65
2021/11/15 05:03:24;;;;;;;92.30;48.80;;;;;;;4.41;87.32;100945.44;106372;1315;22466;-65
2021/11/15 05:05:52;;;;;;;91.20;50.00;;;;;;;4.41;87.20;100947.05;106408;1314;22533;-65
2021/11/15 05:08:20;;;;;;;92.50;50.50;;;;;;;4.41;87.19;100953.89;105602;1315;138333;-65
2021/11/15 05:10:49;;;;;;;91.40;48.70;;;;;;;4.41;87.46;100958.17;105921;1315;22548;-65
2021/11/15 05:13:17;;;;;;;89.80;48.60;;;;;;;4.40;87.67;100960.61;106299;1316;139122;-64
2021/11/15 05:15:45;;;;;;;93.70;47.60;;;;;;;4.40;87.45;100964.66;106371;1319;22504;-65
2021/11/15 05:18:13;;;;;;;95.50;49.20;;;;;;;4.38;87.50;100971.69;106336;1316;22470;-65
2021/11/15 05:20:42;;;;;;;86.40;48.30;;;;;;;4.36;87.56;100977.80;106285;1315;138093;-65
2021/11/15 05:23:09;;;;;;;90.70;48.30;;;;;;;4.36;87.46;100984.15;106192;1314;22401;-65
2021/11/15 05:25:39;;;;;;;87.70;48.40;;;;;;;4.36;87.59;100989.38;106155;1316;138180;-65
2021/11/15 05:28:08;;;;;;;88.70;50.00;;;;;;;4.36;87.86;100994.78;106396;1319;22620;-65
2021/11/15 05:30:37;;;;;;;83.50;49.70;;;;;;;4.35;87.56;100991.77;106308;1316;23081;-65
2021/11/15 05:33:05;;;;;;;88.00;47.20;;;;;;;4.34;87.64;100998.23;106114;1317;138008;-65
2021/11/15 05:35:36;;;;;;;83.10;47.30;;;;;;;4.36;87.27;101003.91;106215;1315;22543;-66
2021/11/15 05:38:05;;;;;;;87.30;45.90;;;;;;;4.36;87.50;101010.56;106253;1315;138144;-65
2021/11/15 05:40:33;;;;;;;84.60;47.10;;;;;;;4.37;87.54;101019.90;106380;1315;23726;-65
2021/11/15 05:43:01;;;;;;;78.20;44.50;;;;;;;4.35;87.59;101020.91;106242;1315;139293;-67
2021/11/15 05:45:29;;;;;;;89.90;46.00;;;;;;;4.36;87.41;101022.00;106326;1319;22499;-65
2021/11/15 05:47:57;;;;;;;88.50;48.00;;;;;;;4.37;87.56;101032.07;106380;1315;22310;-66
2021/11/15 05:50:26;;;;;;;82.20;46.10;;;;;;;4.37;87.37;101029.04;106232;1315;139044;-66
2021/11/15 05:52:55;;;;;;;93.40;48.00;;;;;;;4.35;87.40;101029.96;106408;1316;23184;-66
2021/11/15 05:55:23;;;;;;;82.70;44.80;;;;;;;4.35;87.50;101033.90;106262;1315;138604;-66
2021/11/15 05:57:51;;;;;;;84.00;46.10;;;;;;;4.36;87.46;101033.46;106375;1315;23448;-66
2021/11/15 06:00:23;;;;;;;86.00;45.90;;;;;;;4.36;87.21;101034.38;106386;1315;22376;-66
2021/11/15 06:02:51;;;;;;;81.30;47.80;;;;;;;4.36;87.58;101038.63;106270;1315;138271;-66
2021/11/15 06:05:20;;;;;;;90.30;47.90;;;;;;;4.37;87.34;101036.42;106276;1316;22418;-66
2021/11/15 06:07:48;;;;;;;85.70;46.10;;;;;;;4.38;87.02;101043.13;106165;1314;139108;-66
2021/11/15 06:10:23;;;;;;;85.00;44.90;;;;;;;4.37;87.30;101045.70;105047;1315;23762;-68
2021/11/15 06:13:06;;;;;;;73.20;43.50;;;;;;;4.37;87.00;101053.26;106280;1315;138289;-60
2021/11/15 06:15:34;;;;;;;79.30;45.70;;;;;;;4.38;87.13;101054.84;106285;1315;22507;-66
2021/11/15 06:18:02;;;;;;;84.60;46.30;;;;;;;4.38;87.33;101055.17;104818;1315;22578;-68
2021/11/15 06:20:32;;;;;;;80.50;44.50;;;;;;;4.38;86.97;101056.95;102157;1315;138293;-66
2021/11/15 06:23:00;;;;;;;79.40;44.40;;;;;;;4.39;86.97;101057.92;106145;1316;22395;-67
2021/11/15 06:25:28;;;;;;;72.20;41.40;;;;;;;4.38;86.75;101057.96;106272;1315;139007;-67
2021/11/15 06:27:56;;;;;;;77.30;40.10;;;;;;;4.38;86.91;101059.49;106357;1315;22481;-67
2021/11/15 06:30:24;;;;;;;71.00;42.30;;;;;;;4.38;86.79;101064.11;106358;1314;22581;-67
2021/11/15 06:32:52;;;;;;;74.70;42.40;;;;;;;4.39;86.50;101063.70;106287;1316;138294;-66
2021/11/15 06:35:20;;;;;;;75.60;41.30;;;;;;;4.39;86.70;101066.43;106408;1314;22499;-67
2021/11/15 06:37:49;;;;;;;75.80;43.00;;;;;;;4.38;86.54;101071.56;105627;1315;138312;-67
2021/11/15 06:40:17;;;;;;;69.30;40.00;;;;;;;4.38;86.46;101076.52;106356;1315;22467;-67
2021/11/15 06:42:45;;;;;;;71.60;40.00;;;;;;;4.39;86.41;101075.03;106411;1314;23287;-68
2021/11/15 06:45:14;;;;;;;71.00;41.10;;;;;;;4.39;86.28;101074.48;106296;1315;139070;-68
2021/11/15 06:47:42;;;;;;;81.50;40.30;;;;;;;4.40;86.31;101075.84;106387;1319;22487;-67
2021/11/15 06:50:13;;;;;;;72.60;38.30;;;;;;;4.41;86.12;101079.31;106121;1316;139232;-67
2021/11/15 06:52:41;;;;;;;66.90;40.90;;;;;;;4.43;86.17;101082.13;106389;1319;23232;-67
2021/11/15 06:55:10;;;;;;;73.00;41.60;;;;;;;4.43;85.98;101088.73;106280;1318;138591;-68
2021/11/15 06:57:40;;;;;;;67.60;39.00;;;;;;;4.44;86.17;101087.89;105451;1322;22497;-68
2021/11/15 07:00:16;;;;;;;73.90;38.90;;;;;;;4.45;85.95;101086.67;106346;1315;22638;-68
2021/11/15 07:02:48;;;;;;;64.10;38.00;;;;;;;4.47;85.79;101091.46;106250;1314;139873;-67
2021/11/15 07:05:18;;;;;;;60.90;37.20;;;;;;;4.48;85.73;101093.84;106397;1315;22448;-67
2021/11/15 07:07:48;;;;;;;70.30;39.30;;;;;;;4.50;85.55;101096.20;106257;1314;139012;-67
2021/11/15 07:10:16;;;;;;;66.10;37.80;;;;;;;4.50;85.30;101098.35;106335;1315;22351;-66
2021/11/15 07:12:44;;;;;;;65.30;39.30;;;;;;;4.49;85.25;101101.90;106415;1317;22516;-67
2021/11/15 07:15:12;;;;;;;65.60;38.00;;;;;;;4.47;85.32;101105.56;106289;1315;137861;-67
2021/11/15 07:17:40;;;;;;;70.40;38.30;;;;;;;4.50;85.26;101115.63;106428;1315;22515;-67
2021/11/15 07:20:09;;;;;;;62.30;38.50;;;;;;;4.51;84.93;101113.50;106218;1315;138427;-67
2021/11/15 07:22:38;;;;;;;62.00;36.30;;;;;;;4.51;85.05;101118.66;106298;1317;22467;-67
2021/11/15 07:25:07;;;;;;;61.20;36.20;;;;;;;4.52;84.77;101118.98;105380;1322;138900;-67
2021/11/15 07:27:35;;;;;;;61.80;36.30;;;;;;;4.53;84.74;101125.20;106336;1318;22488;-67
2021/11/15 07:30:04;;;;;;;59.80;36.80;;;;;;;4.50;84.72;101126.53;103752;1315;24225;-67
2021/11/15 07:32:32;;;;;;;58.50;36.90;;;;;;;4.53;84.48;101130.02;102200;1315;140019;-66
2021/11/15 07:35:01;;;;;;;66.50;37.80;;;;;;;4.52;84.04;101128.43;102314;1319;22632;-67
2021/11/15 07:37:29;;;;;;;67.20;37.10;;;;;;;4.54;84.27;101133.70;106132;1315;139487;-67
2021/11/15 07:39:57;;;;;;;70.50;37.30;;;;;;;4.56;83.92;101135.98;104953;1316;23103;-67
2021/11/15 07:42:26;;;;;;;72.00;38.20;;;;;;;4.55;83.95;101147.17;106358;1314;23327;-68
2021/11/15 07:44:54;;;;;;;58.80;35.10;;;;;;;4.56;84.01;101148.23;106283;1316;138388;-68
2021/11/15 07:47:22;;;;;;;61.80;37.00;;;;;;;4.56;83.76;101148.02;106274;1315;23908;-68
2021/11/15 07:49:51;;;;;;;57.30;34.70;;;;;;;4.56;83.67;101151.83;106229;1315;138349;-68
2021/11/15 07:52:19;;;;;;;63.60;35.60;;;;;;;4.56;83.91;101151.73;106276;1315;23226;-68
2021/11/15 07:54:47;;;;;;;70.20;36.30;;;;;;;4.59;83.69;101155.60;106319;1315;22524;-68
2021/11/15 07:57:16;;;;;;;62.00;36.40;;;;;;;4.62;83.54;101153.08;106113;1315;138900;-68
2021/11/15 07:59:44;;;;;;;58.60;34.60;;;;;;;4.64;83.41;101152.11;106329;1317;22500;-68
2021/11/15 08:02:13;;;;;;;66.00;34.40;;;;;;;4.69;83.27;101159.98;106274;1315;138912;-67
2021/11/15 08:04:41;;;;;;;66.80;38.10;;;;;;;4.73;83.14;101161.91;106314;1315;22494;-68
2021/11/15 08:07:10;;;;;;;72.70;37.50;;;;;;;4.74;82.84;101164.89;106175;1315;139320;-67
2021/11/15 08:09:38;;;;;;;56.60;34.40;;;;;;;4.75;82.75;101171.73;106399;1316;22441;-68
2021/11/15 08:15:00;;;;;;;63.30;34.10;;;;;;;4.80;82.02;101172.71;99159;1357;545552;-67
2021/11/15 08:17:28;;;;;;;58.90;35.80;;;;;;;4.78;81.91;101175.05;100954;1329;25382;-66
2021/11/15 08:19:56;;;;;;;54.90;31.80;;;;;;;4.78;81.28;101179.04;101526;1321;137782;-66
2021/11/15 08:22:24;;;;;;;58.80;32.40;;;;;;;4.76;81.19;101180.08;101655;1321;22735;-66
2021/11/15 08:24:53;;;;;;;64.90;34.00;;;;;;;4.73;81.02;101181.63;105565;1321;23246;-68
2021/11/15 08:27:21;;;;;;;57.60;33.20;;;;;;;4.73;81.39;101190.16;102783;1322;137428;-65
2021/11/15 08:29:52;;;;;;;57.50;33.90;;;;;;;4.74;81.13;101187.86;105891;1318;23536;-66
2021/11/15 08:32:25;;;;;;;59.00;33.20;;;;;;;4.75;80.61;101188.59;105923;1322;138011;-67
2021/11/15 08:34:55;;;;;;;57.30;33.00;;;;;;;4.76;80.82;101188.52;105994;1318;23350;-68
2021/11/15 08:37:23;;;;;;;58.10;34.70;;;;;;;4.75;80.38;101193.48;105759;1322;139394;-67
2021/11/15 08:39:51;;;;;;;64.20;32.50;;;;;;;4.74;80.39;101193.96;104672;1322;22604;-67
2021/11/15 08:42:21;;;;;;;58.60;34.30;;;;;;;4.72;79.95;101193.44;105992;1322;22540;-68
2021/11/15 08:44:55;;;;;;;73.50;35.90;;;;;;;4.74;80.26;101202.95;105947;1319;137858;-68
2021/11/15 08:47:23;;;;;;;56.80;31.50;;;;;;;4.75;79.79;101207.16;106113;1325;22461;-66
2021/11/15 08:49:52;;;;;;;74.60;33.50;;;;;;;4.74;79.24;101203.65;105986;1319;137809;-67
2021/11/15 08:52:20;;;;;;;56.80;32.10;;;;;;;4.73;79.23;101207.06;105990;1322;22983;-68
2021/11/15 08:54:51;;;;;;;57.00;34.80;;;;;;;4.74;79.25;101205.01;105007;1323;22627;-68
2021/11/15 08:57:19;;;;;;;55.20;34.30;;;;;;;4.75;79.22;101208.98;105951;1322;137752;-68
2021/11/15 08:59:48;;;;;;;59.80;33.20;;;;;;;4.78;79.31;101203.61;106023;1323;22474;-67
2021/11/15 09:02:17;;;;;;;56.70;31.50;;;;;;;4.81;78.88;101202.48;106016;1318;138186;-67
2021/11/15 09:04:45;;;;;;;57.50;33.30;;;;;;;4.86;78.36;101199.58;105996;1318;22414;-68
2021/11/15 09:07:13;;;;;;;76.60;35.10;;;;;;;4.89;78.20;101199.77;105866;1322;138520;-68
2021/11/15 09:09:42;;;;;;;59.70;31.80;;;;;;;4.93;78.32;101193.81;106086;1318;22360;-68
2021/11/15 09:12:11;;;;;;;72.40;32.50;;;;;;;4.98;77.43;101186.33;105953;1319;22535;-68
2021/11/15 09:14:39;;;;;;;52.10;30.60;;;;;;;5.06;77.37;101193.23;105990;1322;138036;-68
2021/11/15 09:17:07;;;;;;;57.90;31.80;;;;;;;5.12;77.24;101199.38;106074;1319;22308;-68
2021/11/15 09:19:36;;;;;;;56.50;33.30;;;;;;;5.17;76.54;101201.47;105954;1318;138085;-68
2021/11/15 09:22:16;;;;;;;50.10;31.00;;;;;;;5.19;76.30;101197.25;106061;1318;22285;-68
2021/11/15 09:24:45;;;;;;;55.50;33.20;;;;;;;5.23;76.12;101199.61;106092;1318;22629;-68
2021/11/15 09:27:14;;;;;;;57.20;35.30;;;;;;;5.25;76.45;101204.13;105774;1318;139729;-68
2021/11/15 09:29:44;;;;;;;59.60;35.40;;;;;;;5.26;76.46;101200.34;106018;1323;22446;-68
2021/11/15 09:32:13;;;;;;;57.60;33.40;;;;;;;5.26;76.50;101203.04;105903;1319;138202;-68
2021/11/15 09:34:42;;;;;;;58.00;32.50;;;;;;;5.28;76.39;101205.77;106025;1318;22534;-68
2021/11/15 09:37:10;;;;;;;50.70;29.90;;;;;;;5.28;75.90;101205.70;105881;1318;139689;-66
2021/11/15 09:39:39;;;;;;;53.10;30.80;;;;;;;5.26;75.25;101210.80;104493;1322;24324;-67
2021/11/15 09:42:08;;;;;;;49.40;29.80;;;;;;;5.22;75.08;101215.46;105970;1321;23735;-66
2021/11/15 09:44:41;;;;;;;46.40;28.90;;;;;;;5.15;74.92;101211.48;105890;1318;138440;-65
2021/11/15 09:47:09;;;;;;;50.20;30.70;;;;;;;5.09;75.18;101204.36;106073;1322;22574;-65
2021/11/15 09:49:38;;;;;;;54.20;30.80;;;;;;;5.05;75.51;101206.37;105974;1319;138089;-65
2021/11/15 09:52:08;;;;;;;52.00;30.80;;;;;;;5.04;75.41;101206.65;106075;1319;23339;-65
2021/11/15 09:54:37;;;;;;;54.00;31.80;;;;;;;5.03;75.26;101210.23;106056;1321;22535;-65
2021/11/15 09:57:25;;;;;;;51.90;30.10;;;;;;;5.03;75.06;101216.77;105854;1322;137976;-65
2021/11/15 09:59:54;;;;;;;49.40;30.80;;;;;;;5.06;75.31;101213.81;106107;1318;22476;-65
2021/11/15 10:02:23;;;;;;;44.30;30.20;;;;;;;5.08;75.39;101221.25;106012;1323;138031;-65
2021/11/15 10:04:51;;;;;;;53.00;30.50;;;;;;;5.11;75.35;101220.35;106076;1318;22412;-65
2021/11/15 10:07:46;;;;;;;69.20;32.40;;;;;;;5.13;75.47;101228.05;105970;1318;138254;-65
2021/11/15 10:10:28;;;;;;;48.90;30.20;;;;;;;5.12;75.28;101229.67;106086;1324;22453;-65
2021/11/15 10:13:10;;;;;;;49.70;30.60;;;;;;;5.05;75.35;101235.46;106082;1319;22487;-65
2021/11/15 10:15:55;;;;;;;49.40;29.70;;;;;;;5.01;75.81;101240.42;105943;1318;137648;-66
2021/11/15 10:18:44;;;;;;;48.70;28.60;;;;;;;4.98;76.09;101241.70;106022;1318;23890;-66
2021/11/15 10:21:16;;;;;;;52.70;29.70;;;;;;;4.96;75.91;101241.73;105945;1319;139523;-66
2021/11/15 10:23:46;;;;;;;46.50;28.80;;;;;;;4.93;76.24;101243.54;106043;1319;22286;-66
2021/11/15 10:26:19;;;;;;;45.20;27.40;;;;;;;4.88;76.20;101248.08;105172;1323;139356;-66
2021/11/15 10:28:51;;;;;;;43.50;27.60;;;;;;;4.83;75.98;101252.29;106028;1319;22414;-66
2021/11/15 10:31:38;;;;;;;40.00;26.50;;;;;;;4.76;75.93;101257.02;105456;1323;140380;-65
2021/11/15 10:34:11;;;;;;;43.40;27.00;;;;;;;4.68;76.23;101259.50;106118;1322;22476;-66
2021/11/15 10:36:51;;;;;;;40.30;24.60;;;;;;;4.59;76.35;101263.87;106093;1315;22411;-67
2021/11/15 10:39:22;;;;;;;42.30;26.10;;;;;;;4.52;76.59;101269.27;105990;1319;137701;-66
2021/11/15 10:42:11;;;;;;;42.80;23.50;;;;;;;4.44;76.62;101268.86;106097;1319;22477;-66
2021/11/15 10:44:54;;;;;;;41.40;24.80;;;;;;;4.40;76.91;101276.91;105882;1321;137903;-66
2021/11/15 10:47:29;;;;;;;38.30;24.70;;;;;;;4.38;76.95;101278.63;105999;1320;22484;-66
2021/11/15 10:50:11;;;;;;;47.10;24.40;;;;;;;4.37;77.01;101280.28;105715;1321;139151;-65
2021/11/15 10:52:41;;;;;;;43.90;25.30;;;;;;;4.35;76.95;101290.05;106234;1315;22291;-66
2021/11/15 10:55:09;;;;;;;41.80;25.00;;;;;;;4.33;76.93;101293.40;106231;1316;22468;-66
2021/11/15 10:57:43;;;;;;;40.40;24.50;;;;;;;4.30;76.67;101306.02;106181;1318;137662;-67
2021/11/15 11:00:21;;;;;;;37.50;24.60;;;;;;;4.21;76.53;101307.15;106258;1316;22469;-66
2021/11/15 11:02:53;;;;;;;41.60;25.00;;;;;;;4.10;76.92;101316.70;106141;1319;137960;-66
2021/11/15 11:05:24;;;;;;;38.20;23.10;;;;;;;3.97;76.95;101318.84;106239;1315;22426;-66
2021/11/15 11:08:12;;;;;;;41.40;23.70;;;;;;;3.83;77.01;101320.17;106141;1315;138393;-66
2021/11/15 11:11:08;;;;;;;35.70;23.50;;;;;;;3.67;77.47;101317.52;106227;1316;22653;-66
2021/11/15 11:13:54;;;;;;;38.90;23.30;;;;;;;3.53;77.82;101315.11;106132;1315;139487;-66
2021/11/15 11:16:49;;;;;;;40.40;24.70;;;;;;;3.42;77.92;101314.16;106245;1317;22487;-66
2021/11/15 11:19:36;;;;;;;45.00;26.10;;;;;;;3.32;78.42;101319.27;106171;1316;139339;-67
2021/11/15 11:22:26;;;;;;;44.20;25.60;;;;;;;3.24;78.84;101318.32;106258;1316;22530;-66